Time;durP1;ratioP1;P1;durP2;ratioP2;P2;SDS_P1;SDS_P2;PMS_P1;PMS_P2;Temp;Humidity;BMP_temperature;BMP_pressure;BME280_temperature;BME280_humidity;BME280_pressure;Samples;Min_cycle;Max_cycle;Signal;HPM_P1;HPM_P2
2022/06/16 00:01:41;;;;;;;4.72;3.90;;;;;;;12.65;87.14;102117.44;5054237;28;20041;-75
2022/06/16 00:04:06;;;;;;;7.28;4.63;;;;;;;12.62;86.96;102116.84;5054501;28;20039;-75
2022/06/16 00:06:32;;;;;;;9.25;3.97;;;;;;;12.58;86.86;102128.72;5053927;28;20519;-78
2022/06/16 00:08:58;;;;;;;5.35;3.88;;;;;;;12.51;86.39;102125.72;5052904;28;20036;-74
2022/06/16 00:11:23;;;;;;;4.53;3.67;;;;;;;12.43;86.39;102120.94;5053870;28;20033;-74
2022/06/16 00:13:51;;;;;;;9.63;5.32;;;;;;;12.39;88.06;102122.19;5054561;28;20029;-75
2022/06/16 00:16:20;;;;;;;5.22;4.38;;;;;;;12.33;88.01;102118.16;5052674;28;20349;-75
2022/06/16 00:18:46;;;;;;;5.32;4.28;;;;;;;12.28;88.11;102117.66;5054215;28;20040;-75
2022/06/16 00:21:12;;;;;;;8.40;4.50;;;;;;;12.23;87.87;102119.00;5054183;28;20044;-75
2022/06/16 00:23:38;;;;;;;6.15;5.15;;;;;;;12.19;87.84;102120.19;5052634;28;20131;-75
2022/06/16 00:26:11;;;;;;;6.80;4.30;;;;;;;12.14;88.78;102124.06;5053970;28;20136;-75
2022/06/16 00:28:36;;;;;;;6.68;4.13;;;;;;;12.10;89.05;102121.75;5053774;28;20080;-76
2022/06/16 00:31:05;;;;;;;7.07;5.35;;;;;;;12.09;90.18;102128.06;5052445;28;20025;-75
2022/06/16 00:33:31;;;;;;;5.57;4.75;;;;;;;12.06;90.16;102134.50;5053563;28;20330;-76
2022/06/16 00:35:57;;;;;;;11.18;5.00;;;;;;;12.06;90.07;102130.97;5053673;28;20029;-76
2022/06/16 00:38:24;;;;;;;8.77;5.13;;;;;;;12.05;90.28;102130.13;5054347;28;20143;-76
2022/06/16 00:40:50;;;;;;;6.03;5.00;;;;;;;12.03;90.21;102133.84;5053321;28;20512;-76
2022/06/16 00:43:15;;;;;;;8.10;4.20;;;;;;;11.98;90.02;102137.72;5054240;28;20102;-76
2022/06/16 00:46:06;;;;;;;10.15;5.40;;;;;;;11.93;89.84;102137.22;5034942;28;20037;-77
2022/06/16 00:48:41;;;;;;;6.68;4.20;;;;;;;11.88;89.23;102141.19;5052819;28;20040;-76
2022/06/16 00:51:20;;;;;;;5.35;4.00;;;;;;;11.82;88.76;102140.69;5056660;28;20029;-76
2022/06/16 00:53:46;;;;;;;6.38;4.18;;;;;;;11.74;87.99;102145.72;5055577;28;20021;-75
2022/06/16 00:56:16;;;;;;;5.05;4.30;;;;;;;11.69;88.82;102147.03;5055252;28;20122;-76
2022/06/16 00:58:45;;;;;;;6.05;4.38;;;;;;;11.63;88.74;102146.53;5056392;28;20071;-76
2022/06/16 01:01:13;;;;;;;6.47;4.60;;;;;;;11.59;89.58;102153.06;5055019;28;20024;-75
2022/06/16 01:06:29;;;;;;;5.95;4.20;;;;;;;11.46;88.38;102152.25;5053942;28;20133;-77
2022/06/16 01:09:00;;;;;;;4.68;3.58;;;;;;;11.39;88.25;102157.19;5053701;28;20060;-76
2022/06/16 01:14:31;;;;;;;6.43;4.55;;;;;;;11.27;89.69;102156.28;5053534;28;20091;-76
2022/06/16 01:17:03;;;;;;;6.63;4.47;;;;;;;11.22;89.16;102153.09;5053107;28;20117;-76
2022/06/16 01:20:00;;;;;;;5.45;3.92;;;;;;;11.17;89.13;102149.06;5052960;28;20044;-76
2022/06/16 01:22:45;;;;;;;5.78;3.92;;;;;;;11.11;89.66;102151.19;5053597;28;20080;-76
2022/06/16 01:25:30;;;;;;;10.93;5.70;;;;;;;11.09;90.76;102150.47;5053163;28;20025;-76
2022/06/16 01:28:07;;;;;;;6.40;4.97;;;;;;;11.09;91.47;102154.94;5052427;28;20032;-76
2022/06/16 01:30:39;;;;;;;7.50;4.43;;;;;;;11.06;90.97;102155.16;5053216;28;20425;-76
2022/06/16 01:33:19;;;;;;;6.20;4.85;;;;;;;11.03;90.48;102152.72;5051505;28;20039;-76
2022/06/16 01:35:56;;;;;;;6.60;4.65;;;;;;;10.99;90.99;102156.53;5052345;28;20028;-77
2022/06/16 01:38:36;;;;;;;8.60;5.30;;;;;;;10.93;91.25;102163.19;5051170;28;20115;-76
2022/06/16 01:41:12;;;;;;;5.65;4.45;;;;;;;10.89;91.66;102173.19;5052781;28;20082;-76
2022/06/16 01:43:50;;;;;;;9.40;5.30;;;;;;;10.87;91.72;102177.78;5053181;28;20045;-75
2022/06/16 01:46:27;;;;;;;8.68;4.60;;;;;;;10.79;90.83;102174.78;5052472;28;20353;-76
2022/06/16 01:49:02;;;;;;;6.40;4.70;;;;;;;10.75;91.09;102173.31;5052907;28;20092;-76
2022/06/16 01:51:50;;;;;;;6.60;5.20;;;;;;;10.72;91.42;102177.03;5052221;28;20056;-76
2022/06/16 01:54:24;;;;;;;7.75;5.57;;;;;;;10.72;93.14;102174.38;5051423;28;20441;-77
2022/06/16 01:57:02;;;;;;;5.85;4.75;;;;;;;10.68;92.34;102174.72;5052243;28;20048;-76
2022/06/16 01:59:34;;;;;;;9.02;4.97;;;;;;;10.64;91.90;102165.22;5051950;28;20048;-77
2022/06/16 02:02:05;;;;;;;6.00;4.45;;;;;;;10.57;91.85;102165.66;5052058;28;20112;-74
2022/06/16 02:05:02;;;;;;;4.95;3.95;;;;;;;10.52;91.49;102172.25;5052457;28;20036;-75
2022/06/16 02:07:43;;;;;;;6.18;4.70;;;;;;;10.48;91.38;102174.28;5051815;28;20440;-75
2022/06/16 02:10:24;;;;;;;7.28;4.90;;;;;;;10.43;91.97;102172.88;5052020;28;20029;-76
2022/06/16 02:12:57;;;;;;;5.13;4.60;;;;;;;10.38;92.13;102165.22;5051956;28;20112;-76
2022/06/16 02:15:35;;;;;;;6.25;4.10;;;;;;;10.32;92.21;102165.63;5052455;28;20056;-75
2022/06/16 02:18:03;;;;;;;9.27;5.15;;;;;;;10.28;91.63;102161.47;5051756;28;20060;-75
2022/06/16 02:20:38;;;;;;;7.63;4.60;;;;;;;10.24;92.15;102164.31;5051480;28;20125;-75
2022/06/16 02:23:04;;;;;;;5.05;4.05;;;;;;;10.20;91.73;102167.31;5051488;28;20021;-75
2022/06/16 02:25:29;;;;;;;5.40;4.30;;;;;;;10.17;92.50;102171.00;5051814;28;20033;-75
2022/06/16 02:27:55;;;;;;;6.68;4.90;;;;;;;10.14;91.73;102175.72;5051400;28;20452;-75
2022/06/16 02:30:24;;;;;;;5.97;4.20;;;;;;;10.12;92.09;102174.94;5051241;28;20145;-75
2022/06/16 02:33:29;;;;;;;5.10;4.18;;;;;;;10.08;91.50;102182.28;5051278;28;20226;-75
2022/06/16 02:36:33;;;;;;;5.72;4.28;;;;;;;10.04;91.35;102189.59;5051472;28;20210;-76
2022/06/16 02:39:01;;;;;;;6.15;4.43;;;;;;;10.01;91.44;102186.31;5051920;28;20073;-76
2022/06/16 02:41:44;;;;;;;6.40;4.47;;;;;;;9.96;91.39;102191.94;5051517;28;20100;-75
2022/06/16 02:44:15;;;;;;;4.93;4.38;;;;;;;9.93;91.56;102196.59;5051434;28;20032;-76
2022/06/16 02:46:52;;;;;;;5.25;4.57;;;;;;;9.89;91.56;102203.91;5051083;28;20039;-75
2022/06/16 02:49:43;;;;;;;5.75;4.70;;;;;;;9.85;91.51;102205.06;5051515;28;20480;-77
2022/06/16 02:52:44;;;;;;;7.13;4.60;;;;;;;9.81;91.60;102195.63;5051404;28;20036;-76
2022/06/16 02:55:26;;;;;;;7.20;5.10;;;;;;;9.79;91.90;102194.84;5051293;28;20326;-76
2022/06/16 02:57:56;;;;;;;6.28;5.07;;;;;;;9.77;92.59;102196.75;5051552;28;20144;-75
2022/06/16 03:00:43;;;;;;;9.27;4.75;;;;;;;9.74;92.36;102195.16;5051193;28;20037;-76
2022/06/16 03:03:37;;;;;;;6.30;5.03;;;;;;;9.72;93.29;102194.41;5051473;28;20079;-76
2022/06/16 03:06:03;;;;;;;8.38;5.38;;;;;;;9.70;93.45;102190.97;5050187;28;20048;-76
2022/06/16 03:08:31;;;;;;;9.95;5.43;;;;;;;9.67;93.76;102200.03;5049611;28;20032;-75
2022/06/16 03:10:58;;;;;;;5.97;5.28;;;;;;;9.66;93.82;102202.78;5054961;28;20108;-75
2022/06/16 03:13:30;;;;;;;7.32;5.20;;;;;;;9.62;93.71;102207.44;5055063;28;20124;-75
2022/06/16 03:15:57;;;;;;;5.75;4.57;;;;;;;9.60;93.73;102209.34;5055110;28;20068;-75
2022/06/16 03:18:24;;;;;;;5.93;5.13;;;;;;;9.59;93.74;102209.44;5054813;28;20029;-75
2022/06/16 03:20:49;;;;;;;5.70;5.07;;;;;;;9.61;94.81;102213.69;5054981;28;20041;-74
2022/06/16 03:23:15;;;;;;;5.53;4.93;;;;;;;9.64;95.06;102212.63;5053961;28;20403;-75
2022/06/16 03:25:41;;;;;;;6.95;4.82;;;;;;;9.67;95.31;102215.97;5054659;28;20033;-75
2022/06/16 03:28:08;;;;;;;9.85;6.60;;;;;;;9.78;96.92;102212.59;5054984;28;20178;-75
2022/06/16 03:30:34;;;;;;;8.25;6.35;;;;;;;9.91;98.31;102211.78;5054963;28;20029;-75
2022/06/16 03:33:01;;;;;;;10.23;5.65;;;;;;;10.05;98.82;102211.75;5054517;28;20029;-76
2022/06/16 03:35:27;;;;;;;8.40;6.25;;;;;;;10.16;98.61;102208.34;5053306;28;20064;-75
2022/06/16 03:37:52;;;;;;;6.70;4.88;;;;;;;10.27;98.61;102216.47;5054594;28;20065;-75
2022/06/16 03:40:18;;;;;;;7.10;5.55;;;;;;;10.37;98.58;102222.88;5053012;28;20577;-75
2022/06/16 03:42:44;;;;;;;6.93;4.78;;;;;;;10.47;98.54;102231.13;5054138;28;20484;-75
2022/06/16 03:45:10;;;;;;;9.65;6.55;;;;;;;10.58;98.42;102233.91;5054490;28;20114;-75
2022/06/16 03:47:35;;;;;;;8.50;5.95;;;;;;;10.67;98.45;102232.41;5054166;28;20037;-75
2022/06/16 03:50:01;;;;;;;7.43;5.00;;;;;;;10.73;97.96;102225.81;5070085;28;20040;-76
2022/06/16 03:52:26;;;;;;;10.23;6.53;;;;;;;10.81;97.65;102241.25;5054196;28;20082;-74
2022/06/16 03:54:51;;;;;;;12.15;6.25;;;;;;;10.88;97.17;102240.72;5054395;28;20048;-75
2022/06/16 03:57:18;;;;;;;11.32;7.07;;;;;;;10.92;96.41;102244.84;5053745;28;20060;-75
2022/06/16 03:59:43;;;;;;;7.80;5.63;;;;;;;10.97;95.84;102251.69;5054497;28;20051;-75
2022/06/16 04:02:09;;;;;;;7.18;5.72;;;;;;;10.99;95.34;102249.75;5054019;28;20115;-74
2022/06/16 04:04:34;;;;;;;8.68;5.00;;;;;;;10.98;95.15;102251.56;5054199;28;20029;-75
2022/06/16 04:07:00;;;;;;;6.75;5.18;;;;;;;10.96;94.77;102256.16;5052587;28;20434;-74
2022/06/16 04:09:25;;;;;;;7.50;5.50;;;;;;;10.96;94.49;102264.16;5052651;28;20044;-75
2022/06/16 04:11:50;;;;;;;8.02;5.75;;;;;;;10.92;94.39;102266.16;5052752;28;20124;-75
2022/06/16 04:14:16;;;;;;;6.90;4.68;;;;;;;10.91;94.46;102264.47;5054296;28;20033;-75
2022/06/16 04:16:48;;;;;;;7.47;5.70;;;;;;;10.91;94.46;102276.91;5053782;28;20116;-75
2022/06/16 04:19:16;;;;;;;4.97;3.97;;;;;;;10.90;94.49;102280.56;5053811;28;20131;-75
2022/06/16 04:21:43;;;;;;;8.13;5.10;;;;;;;10.92;94.54;102281.31;5052208;28;20049;-75
2022/06/16 04:24:09;;;;;;;5.78;4.45;;;;;;;10.92;94.57;102290.13;5053558;28;20116;-75
2022/06/16 04:26:38;;;;;;;5.72;4.63;;;;;;;10.93;94.66;102293.66;5052735;28;20033;-75
2022/06/16 04:29:05;;;;;;;5.05;4.18;;;;;;;10.94;94.59;102298.88;5053817;28;20036;-74
2022/06/16 04:31:31;;;;;;;6.13;4.40;;;;;;;10.96;94.55;102300.56;5053361;28;20028;-75
2022/06/16 04:33:57;;;;;;;4.90;4.40;;;;;;;11.00;94.52;102296.75;5053472;28;20025;-75
2022/06/16 04:36:22;;;;;;;5.80;4.20;;;;;;;11.06;94.77;102301.63;5053148;28;20396;-75
2022/06/16 04:38:48;;;;;;;6.97;5.80;;;;;;;11.17;94.88;102306.25;5053791;28;20082;-75
2022/06/16 04:41:14;;;;;;;7.38;5.70;;;;;;;11.34;95.10;102310.38;5053675;28;20033;-75
2022/06/16 04:43:40;;;;;;;5.53;4.63;;;;;;;11.56;95.36;102323.88;5052961;28;20098;-75
2022/06/16 04:46:06;;;;;;;11.68;5.45;;;;;;;11.85;95.91;102322.75;5053881;28;20040;-75
2022/06/16 04:48:31;;;;;;;9.27;5.57;;;;;;;12.09;92.87;102314.81;5053175;28;20041;-75
2022/06/16 04:50:57;;;;;;;6.75;5.10;;;;;;;12.39;91.01;102326.84;5052408;28;20033;-74
2022/06/16 04:53:23;;;;;;;8.50;4.95;;;;;;;12.63;88.61;102319.66;5051832;28;20473;-75
2022/06/16 04:55:53;;;;;;;8.98;5.03;;;;;;;12.87;86.22;102322.25;5052953;28;20021;-74
2022/06/16 04:58:18;;;;;;;9.45;5.63;;;;;;;13.06;82.08;102328.84;5052131;28;20033;-74
2022/06/16 05:00:46;;;;;;;7.43;5.20;;;;;;;13.25;80.40;102338.97;5053874;28;20021;-75
2022/06/16 05:03:12;;;;;;;11.52;4.97;;;;;;;13.40;78.85;102345.81;5053799;28;20029;-76
2022/06/16 05:05:37;;;;;;;7.93;4.97;;;;;;;13.54;78.64;102338.50;5054079;28;20362;-75
2022/06/16 05:08:02;;;;;;;7.22;5.10;;;;;;;13.66;77.51;102348.25;5054446;28;20041;-75
2022/06/16 05:10:28;;;;;;;8.23;4.72;;;;;;;13.75;76.81;102347.50;5052660;28;20048;-76
2022/06/16 05:12:53;;;;;;;9.50;4.85;;;;;;;13.81;76.01;102342.63;5054523;28;20036;-73
2022/06/16 05:15:19;;;;;;;9.57;5.07;;;;;;;13.85;76.02;102339.59;5053854;28;20040;-73
2022/06/16 05:17:44;;;;;;;8.95;5.00;;;;;;;13.90;74.70;102347.25;5054110;28;20357;-74
2022/06/16 05:20:10;;;;;;;8.23;5.70;;;;;;;13.95;74.19;102363.78;5052584;28;20024;-73
2022/06/16 05:22:35;;;;;;;8.70;5.07;;;;;;;14.00;73.71;102356.25;5053963;28;20099;-72
2022/06/16 05:25:01;;;;;;;8.10;5.18;;;;;;;14.05;73.27;102354.03;5054456;28;20294;-74
2022/06/16 05:27:26;;;;;;;8.43;5.22;;;;;;;14.03;73.94;102358.66;5053776;28;20033;-72
2022/06/16 05:29:51;;;;;;;9.75;4.82;;;;;;;14.03;74.15;102360.47;5054390;28;20047;-73
2022/06/16 05:32:17;;;;;;;9.30;4.70;;;;;;;13.99;72.60;102359.88;5053250;28;20025;-74
2022/06/16 05:34:44;;;;;;;8.32;5.45;;;;;;;14.00;73.15;102361.59;5052053;28;20040;-73
2022/06/16 05:37:09;;;;;;;8.73;4.78;;;;;;;13.99;72.19;102351.84;5052099;28;20029;-73
2022/06/16 05:39:35;;;;;;;9.38;4.47;;;;;;;13.96;73.05;102354.78;5053482;28;20480;-73
2022/06/16 05:42:00;;;;;;;8.38;4.53;;;;;;;13.95;72.51;102354.91;5055299;28;20040;-86
2022/06/16 05:44:28;;;;;;;5.57;4.00;;;;;;;13.96;73.01;102352.09;5058089;28;20087;-83
2022/06/16 05:46:54;;;;;;;7.90;4.15;;;;;;;14.04;73.84;102352.31;5056964;28;20033;-85
2022/06/16 05:49:21;;;;;;;7.32;4.38;;;;;;;14.16;73.20;102352.31;5052985;28;20250;-86
2022/06/16 05:51:47;;;;;;;8.80;5.72;;;;;;;14.28;72.63;102349.44;5055769;28;20061;-87
2022/06/16 05:54:12;;;;;;;7.18;5.20;;;;;;;14.48;72.03;102355.00;5054338;28;20475;-86
2022/06/16 05:56:38;;;;;;;14.13;4.20;;;;;;;14.68;72.08;102363.22;5053752;28;20056;-87
2022/06/16 05:59:03;;;;;;;7.22;3.30;;;;;;;14.85;68.49;102372.50;5052577;28;20121;-87
2022/06/16 06:01:29;;;;;;;4.90;3.55;;;;;;;15.03;65.07;102381.66;5053359;28;20025;-81
2022/06/16 06:03:54;;;;;;;10.18;3.60;;;;;;;15.22;65.85;102374.72;5053360;28;20029;-87
2022/06/16 06:06:20;;;;;;;5.68;3.13;;;;;;;15.36;65.12;102369.03;5051575;28;20390;-78
2022/06/16 06:17:13;;;;;;;7.47;3.88;;;;;;;15.93;59.83;102368.56;5052981;28;20048;-77
2022/06/16 06:19:39;;;;;;;5.53;3.28;;;;;;;16.07;59.32;102370.03;5051561;28;20033;-76
2022/06/16 06:22:17;;;;;;;10.00;3.60;;;;;;;16.14;56.87;102371.16;5052901;28;20462;-76
2022/06/16 06:24:44;;;;;;;8.60;3.50;;;;;;;16.25;57.19;102370.19;5052799;28;20036;-76
2022/06/16 06:27:20;;;;;;;4.30;3.28;;;;;;;16.40;58.70;102369.63;5052148;28;20029;-76
2022/06/16 06:29:47;;;;;;;5.20;3.03;;;;;;;16.61;58.42;102362.44;5053119;28;20044;-76
2022/06/16 06:32:15;;;;;;;7.28;3.40;;;;;;;16.71;56.96;102365.97;5052585;28;20064;-76
2022/06/16 06:34:41;;;;;;;7.55;3.28;;;;;;;16.85;59.08;102368.19;5052074;28;20025;-75
2022/06/16 06:37:07;;;;;;;5.75;3.17;;;;;;;17.03;59.02;102365.69;5051890;28;20064;-75
2022/06/16 06:39:33;;;;;;;7.13;3.20;;;;;;;17.20;57.34;102360.53;5051688;28;20409;-75
2022/06/16 06:41:59;;;;;;;6.80;2.70;;;;;;;17.19;54.31;102365.06;5051265;28;20029;-75
2022/06/16 06:44:25;;;;;;;4.13;2.70;;;;;;;17.24;53.90;102365.50;5051568;28;20361;-76
2022/06/16 06:46:51;;;;;;;3.20;2.40;;;;;;;17.35;53.38;102369.00;5051252;28;20037;-75
2022/06/16 06:49:16;;;;;;;6.88;2.78;;;;;;;17.51;54.79;102369.22;5052039;28;20037;-75
2022/06/16 06:51:42;;;;;;;5.85;3.10;;;;;;;17.68;53.89;102372.13;5052177;28;20448;-76
2022/06/16 06:54:08;;;;;;;7.65;2.63;;;;;;;17.87;53.52;102377.41;5052626;28;20037;-76
2022/06/16 06:56:34;;;;;;;5.22;2.53;;;;;;;17.92;50.55;102379.69;5052386;28;20385;-77
2022/06/16 06:59:04;;;;;;;3.83;2.50;;;;;;;18.05;48.61;102382.00;5051873;28;20447;-77
2022/06/16 07:01:29;;;;;;;4.97;2.27;;;;;;;18.14;51.05;102379.25;5052081;28;20028;-77
2022/06/16 07:03:55;;;;;;;7.15;2.42;;;;;;;18.21;52.09;102381.34;5052339;28;20503;-77
2022/06/16 07:06:20;;;;;;;2.47;2.20;;;;;;;18.33;49.88;102385.50;5052133;28;20049;-76
2022/06/16 07:08:46;;;;;;;7.03;2.47;;;;;;;18.22;48.24;102391.97;5051358;28;20037;-77
2022/06/16 07:11:13;;;;;;;8.50;3.25;;;;;;;18.29;49.54;102386.81;5052422;28;20033;-77
2022/06/16 07:13:40;;;;;;;5.40;2.10;;;;;;;18.52;49.82;102386.38;5052088;28;20446;-77
2022/06/16 07:16:06;;;;;;;3.58;2.15;;;;;;;18.79;48.91;102391.66;5051339;28;20033;-77
2022/06/16 07:18:31;;;;;;;4.38;2.30;;;;;;;19.11;49.37;102398.34;5051948;28;20116;-78
2022/06/16 07:20:56;;;;;;;3.55;2.28;;;;;;;19.28;48.96;102395.75;5052568;28;20037;-77
2022/06/16 07:23:22;;;;;;;5.03;2.05;;;;;;;19.35;47.89;102403.06;5052057;28;20036;-77
2022/06/16 07:25:50;;;;;;;4.97;2.22;;;;;;;19.32;47.04;102408.78;5051900;28;20029;-77
2022/06/16 07:28:17;;;;;;;5.72;2.05;;;;;;;19.45;46.74;102402.97;5051682;28;20036;-76
2022/06/16 07:30:43;;;;;;;4.72;2.10;;;;;;;19.41;45.61;102401.56;5050820;28;20029;-76
2022/06/16 07:33:09;;;;;;;5.53;2.30;;;;;;;19.45;44.05;102405.66;5052111;28;20091;-76
2022/06/16 07:35:36;;;;;;;4.75;2.10;;;;;;;19.56;45.05;102409.94;5052062;28;20060;-75
2022/06/16 07:38:02;;;;;;;3.42;2.15;;;;;;;19.66;44.80;102417.88;5051962;28;20564;-76
2022/06/16 07:40:28;;;;;;;6.00;2.20;;;;;;;19.81;45.88;102419.03;5051911;28;20132;-81
2022/06/16 07:42:56;;;;;;;4.22;2.13;;;;;;;20.02;45.10;102424.00;5052786;28;20044;-87
2022/06/16 07:45:24;;;;;;;5.75;2.30;;;;;;;20.03;44.62;102425.72;5055798;28;20069;-85
2022/06/16 07:47:50;;;;;;;3.55;2.13;;;;;;;20.22;44.90;102431.84;5053610;28;20441;-86
2022/06/16 07:50:16;;;;;;;6.38;2.40;;;;;;;20.12;42.39;102433.81;5051868;28;20052;-83
2022/06/16 07:52:41;;;;;;;5.70;2.20;;;;;;;20.20;44.85;102434.69;5052270;28;20033;-80
2022/06/16 07:55:07;;;;;;;5.43;2.13;;;;;;;20.30;43.57;102431.84;5052393;28;20039;-79
2022/06/16 07:57:42;;;;;;;5.40;2.65;;;;;;;20.35;42.89;102432.22;5055533;28;20088;-79
2022/06/16 08:00:11;;;;;;;4.57;2.20;;;;;;;20.22;44.36;102429.97;5056134;28;20025;-79
2022/06/16 08:02:36;;;;;;;5.18;2.00;;;;;;;20.50;44.78;102436.97;5055467;28;20025;-78
2022/06/16 08:05:03;;;;;;;3.67;2.00;;;;;;;20.65;41.74;102432.59;5055517;28;20098;-79
2022/06/16 08:07:28;;;;;;;6.88;2.20;;;;;;;20.78;40.03;102435.69;5054053;28;20069;-79
2022/06/16 08:09:54;;;;;;;8.70;2.65;;;;;;;20.78;43.18;102427.56;5055283;28;20496;-78
2022/06/16 08:12:20;;;;;;;3.58;2.30;;;;;;;20.94;41.60;102425.88;5055424;28;20461;-78
2022/06/16 08:14:47;;;;;;;6.90;2.30;;;;;;;21.16;43.41;102423.50;5055487;28;20037;-78
2022/06/16 08:17:25;;;;;;;7.68;2.00;;;;;;;21.25;42.13;102428.72;5055078;28;20036;-77
2022/06/16 08:19:51;;;;;;;5.57;2.47;;;;;;;21.09;40.51;102423.31;5055625;28;20081;-77
2022/06/16 08:22:17;;;;;;;7.05;2.10;;;;;;;21.22;42.61;102434.47;5055478;28;20037;-78
2022/06/16 08:24:43;;;;;;;4.70;2.33;;;;;;;21.38;41.17;102440.88;5054991;28;20260;-77
2022/06/16 08:27:09;;;;;;;3.08;1.90;;;;;;;21.61;41.76;102428.31;5054971;28;20210;-75
2022/06/16 08:29:36;;;;;;;7.88;2.25;;;;;;;21.94;40.54;102420.06;5055529;28;20037;-76
2022/06/16 08:32:02;;;;;;;3.80;2.10;;;;;;;22.00;40.20;102422.09;5055229;28;20040;-76
2022/06/16 08:34:27;;;;;;;4.90;2.10;;;;;;;22.32;38.47;102432.97;5055097;28;20041;-76
2022/06/16 08:36:53;;;;;;;3.60;2.00;;;;;;;22.63;37.29;102440.22;5055192;28;20067;-76
2022/06/16 08:39:18;;;;;;;5.97;1.80;;;;;;;22.88;38.65;102433.56;5054644;28;20032;-76
2022/06/16 08:41:48;;;;;;;2.92;1.77;;;;;;;23.12;38.75;102434.41;5055136;28;20350;-77
2022/06/16 08:44:28;;;;;;;4.70;2.33;;;;;;;23.28;35.65;102441.56;5055209;28;20380;-77
2022/06/16 08:47:17;;;;;;;7.35;1.90;;;;;;;23.84;36.45;102441.13;5054864;28;20482;-77
2022/06/16 08:49:50;;;;;;;6.47;2.45;;;;;;;24.51;34.65;102444.63;5054442;28;20016;-77
2022/06/16 08:52:20;;;;;;;6.07;1.98;;;;;;;25.05;35.11;102451.47;5055132;28;20033;-77
2022/06/16 08:55:21;;;;;;;5.05;2.30;;;;;;;25.91;31.36;102436.72;5053611;28;20036;-77
2022/06/16 08:57:52;;;;;;;5.82;2.10;;;;;;;26.43;30.07;102444.47;5054871;28;20052;-77
2022/06/16 09:00:32;;;;;;;3.80;1.98;;;;;;;27.00;29.93;102432.16;5054709;28;20028;-77
2022/06/16 09:03:07;;;;;;;8.53;2.40;;;;;;;27.85;27.24;102433.28;5054361;28;20052;-77
2022/06/16 09:05:56;;;;;;;3.67;2.20;;;;;;;28.82;28.05;102441.38;5054857;28;20033;-77
2022/06/16 09:08:28;;;;;;;6.10;2.15;;;;;;;29.59;26.62;102440.22;5052915;28;20485;-77
2022/06/16 09:10:59;;;;;;;3.75;2.10;;;;;;;29.82;25.54;102442.31;5054272;28;20111;-77
2022/06/16 09:13:58;;;;;;;5.30;1.70;;;;;;;30.02;25.05;102442.06;5054208;28;20028;-77
2022/06/16 09:17:10;;;;;;;2.58;1.92;;;;;;;30.38;24.68;102443.03;5054959;28;20040;-77
2022/06/16 09:19:53;;;;;;;6.75;2.38;;;;;;;30.85;24.79;102445.91;5032376;28;20045;-77
2022/06/16 09:22:46;;;;;;;4.05;2.03;;;;;;;30.80;23.60;102447.69;5032511;28;20088;-77
2022/06/16 09:25:32;;;;;;;5.38;2.20;;;;;;;31.37;22.29;102436.97;5050161;28;20451;-77
2022/06/16 09:28:14;;;;;;;5.78;2.03;;;;;;;31.69;24.63;102433.00;5053009;28;20032;-77
2022/06/16 09:30:43;;;;;;;8.43;2.58;;;;;;;31.18;24.63;102435.44;5053985;28;20044;-77
2022/06/16 09:33:15;;;;;;;7.82;2.25;;;;;;;31.52;22.73;102428.22;5053785;28;20051;-77
2022/06/16 09:35:46;;;;;;;2.97;2.10;;;;;;;31.02;23.92;102431.50;5054283;28;20029;-77
2022/06/16 09:38:33;;;;;;;6.38;2.03;;;;;;;30.59;24.06;102430.72;5053879;28;20033;-77
2022/06/16 09:41:06;;;;;;;8.13;2.58;;;;;;;30.90;23.09;102431.47;5053970;28;20036;-78
2022/06/16 09:43:41;;;;;;;4.53;2.15;;;;;;;31.07;24.46;102434.38;5054199;28;20489;-77
2022/06/16 09:46:16;;;;;;;5.68;2.50;;;;;;;31.08;24.89;102438.78;5053493;28;20499;-76
2022/06/16 09:48:55;;;;;;;9.18;2.30;;;;;;;31.15;23.37;102441.44;5052789;28;20033;-75
2022/06/16 09:51:44;;;;;;;4.80;2.10;;;;;;;30.94;24.12;102433.47;5054000;28;20036;-76
2022/06/16 09:54:25;;;;;;;9.52;2.40;;;;;;;30.99;23.96;102445.72;5053625;28;20025;-76
2022/06/16 09:57:15;;;;;;;8.90;2.33;;;;;;;31.24;23.89;102443.56;5052839;28;20127;-76
2022/06/16 10:00:09;;;;;;;6.78;2.60;;;;;;;31.09;24.26;102444.03;5053145;28;20048;-79
2022/06/16 10:02:41;;;;;;;6.07;2.17;;;;;;;31.37;24.72;102452.66;5050661;28;20051;-76
2022/06/16 10:05:18;;;;;;;7.32;2.17;;;;;;;31.19;24.07;102445.38;5052942;28;20412;-77
2022/06/16 10:07:57;;;;;;;5.90;2.42;;;;;;;31.62;23.10;102450.50;5053131;28;20033;-76
2022/06/16 10:10:32;;;;;;;4.07;2.55;;;;;;;31.59;24.30;102453.72;5053573;28;20064;-78
2022/06/16 10:13:03;;;;;;;6.65;2.63;;;;;;;31.97;21.79;102449.53;5053046;28;20036;-76
2022/06/16 10:15:34;;;;;;;6.88;2.60;;;;;;;31.82;24.42;102447.31;5053460;28;20400;-77
2022/06/16 10:18:00;;;;;;;4.20;1.98;;;;;;;32.46;22.65;102448.28;5052584;28;20167;-83
2022/06/16 10:20:28;;;;;;;11.43;2.40;;;;;;;32.23;22.72;102452.84;5053217;28;20075;-81
2022/06/16 10:23:20;;;;;;;5.35;2.53;;;;;;;32.13;23.83;102445.19;5051539;28;20029;-82
2022/06/16 10:25:54;;;;;;;5.68;2.50;;;;;;;32.69;22.66;102456.44;5053272;28;20036;-80
2022/06/16 10:28:22;;;;;;;5.05;2.40;;;;;;;31.87;22.61;102446.56;5053251;28;20036;-76
2022/06/16 10:30:51;;;;;;;7.70;2.30;;;;;;;32.12;23.96;102464.72;5053070;28;20079;-75
2022/06/16 10:33:22;;;;;;;5.07;2.47;;;;;;;32.46;22.77;102448.28;5053259;28;20039;-75
2022/06/16 10:35:55;;;;;;;4.97;2.10;;;;;;;32.52;21.65;102450.88;5051118;28;20108;-75
2022/06/16 10:38:39;;;;;;;3.80;2.03;;;;;;;32.37;23.36;102461.63;5053486;28;20124;-75
2022/06/16 10:41:25;;;;;;;5.60;2.38;;;;;;;32.72;23.01;102457.00;5052568;28;20518;-75
2022/06/16 10:43:53;;;;;;;6.13;2.10;;;;;;;32.53;23.58;102459.97;5053103;28;20128;-75
2022/06/16 10:46:29;;;;;;;5.38;2.17;;;;;;;32.57;23.11;102461.13;5050893;28;20090;-75
2022/06/16 10:49:00;;;;;;;4.75;2.20;;;;;;;32.34;21.91;102454.69;5052413;28;20033;-77
2022/06/16 10:51:28;;;;;;;4.60;2.03;;;;;;;32.47;22.65;102456.28;5052521;28;20472;-76
2022/06/16 10:54:19;;;;;;;5.35;2.53;;;;;;;32.11;22.20;102452.88;5052376;28;20032;-75
2022/06/16 10:56:45;;;;;;;4.25;1.92;;;;;;;32.79;23.59;102457.69;5052372;28;20159;-76
2022/06/16 10:59:28;;;;;;;4.57;1.90;;;;;;;32.41;22.12;102459.19;5053644;28;20063;-74
2022/06/16 11:02:03;;;;;;;5.10;2.55;;;;;;;30.84;22.23;102457.97;5052482;28;20037;-77
2022/06/16 11:04:38;;;;;;;4.32;2.10;;;;;;;31.84;24.13;102463.56;5052357;28;20021;-74
2022/06/16 11:07:09;;;;;;;5.25;1.85;;;;;;;32.00;22.37;102456.47;5051930;28;20166;-75
2022/06/16 11:09:35;;;;;;;4.30;2.10;;;;;;;32.53;21.62;102451.72;5052691;28;20033;-75
2022/06/16 11:12:13;;;;;;;4.68;1.90;;;;;;;32.90;20.95;102453.16;5052193;28;20032;-75
2022/06/16 11:14:54;;;;;;;5.13;2.25;;;;;;;32.60;20.93;102446.03;5052324;28;20059;-75
2022/06/16 11:17:24;;;;;;;5.72;1.90;;;;;;;32.88;21.03;102438.81;5052930;28;20021;-75
2022/06/16 11:19:58;;;;;;;6.05;2.78;;;;;;;33.43;21.23;102437.97;5052556;28;20025;-74
2022/06/16 11:22:31;;;;;;;5.22;1.75;;;;;;;33.23;22.00;102433.00;5053014;28;20053;-75
2022/06/16 11:25:06;;;;;;;3.28;1.85;;;;;;;33.27;21.80;102430.59;5051627;28;20403;-74
2022/06/16 11:27:47;;;;;;;4.63;1.88;;;;;;;33.44;21.95;102430.53;5052319;28;20040;-74
2022/06/16 11:30:38;;;;;;;9.32;1.92;;;;;;;33.19;20.77;102427.16;5053181;28;20040;-75
2022/06/16 11:33:04;;;;;;;;;;;;;;;33.02;22.36;102449.25;5056919;28;20137;-75
2022/06/16 11:35:56;;;;;;;4.82;2.22;;;;;;;33.35;21.55;102446.69;5057014;28;19916;-75
2022/06/16 11:38:35;;;;;;;3.75;2.22;;;;;;;33.26;21.33;102443.53;5056225;28;20033;-75
2022/06/16 11:41:15;;;;;;;6.97;2.28;;;;;;;32.65;23.90;102449.72;5056462;28;20029;-75
2022/06/16 11:44:02;;;;;;;7.82;2.30;;;;;;;33.49;22.81;102458.19;5038579;28;20032;-74
2022/06/16 11:47:05;;;;;;;5.20;2.20;;;;;;;32.73;23.17;102465.03;5055155;28;20508;-76
2022/06/16 11:49:51;;;;;;;3.13;2.10;;;;;;;32.96;25.05;102474.19;5055855;28;20464;-76
2022/06/16 11:52:31;;;;;;;8.13;2.40;;;;;;;33.47;23.85;102479.66;5056450;28;20056;-74
2022/06/16 11:55:09;;;;;;;7.32;2.63;;;;;;;33.76;21.84;102472.09;5055443;28;20489;-75
2022/06/16 11:57:50;;;;;;;7.63;2.58;;;;;;;33.83;22.40;102480.16;5055586;28;20132;-75
2022/06/16 12:00:16;;;;;;;4.32;1.90;;;;;;;33.56;21.82;102472.63;5055352;28;20377;-75
2022/06/16 12:02:50;;;;;;;11.03;2.37;;;;;;;33.14;21.97;102473.09;5055396;28;20028;-76